Portada
METAR-TAF:

METAR-TAF

Aeropuertos :

Cognac, Francia

latitud: 45-40N, longitud: 000-19W, altitud: 30 m

Observación

El informe se hizo hace 37 minutos, a las 04:00 UTC
Viento 4 kt del este
Temperatura 11°C
Humedad 82%
Presión 1014 hPa
Visibilidad 10 km o más
sin nubes por debajo de 1500 m y sin presencia de cumulonimbus.

METAR: LFBG 210400Z AUTO 10004KT CAVOK 11/08 Q1014

Hora: 06:37 (04:37 UTC)

Pronóstico

El informe se hizo hace 8 horas y 37 minutos, a las 20:00 UTC
Pronóstico válido del 20 a las 21 UTC al 21 a las 21 UTC
Viento 6 kt del oeste-noroeste
Visibilidad 10 km o más
sin nubes por debajo de 1500 m y sin presencia de cumulonimbus.

TAF: LFBG 202000Z 2021/2121 30006KT CAVOK

Observaciones y pronósticos meteorológicos de más de 4000 aeropuertos (mensajes METAR y TAF).

Los puntos amarillos y rojos representan las estaciones disponibles.

Ponga el ratón en el punto deseado para ver el nombre de la estación.

Haga clic para ver las observaciones y los pronósticos meteorológicos.

Para cambiar el mapa : haga clic en los botones verdes con una cruz de color negro para hacer un zoom, en el botón verde con un guión para alejar o en las flechas verdes para mapas adyacentes.


METAR-TAF: